createdAt,value
2022-12-07T00:01:43.409Z,5.50
2022-12-07T00:04:23.414Z,5.68
2022-12-07T00:06:53.699Z,4.90
2022-12-07T00:09:21.520Z,4.82
2022-12-07T00:11:51.321Z,4.47
2022-12-07T00:14:19.012Z,4.28
2022-12-07T00:16:48.823Z,4.07
2022-12-07T00:19:22.558Z,4.68
2022-12-07T00:21:52.125Z,4.25
2022-12-07T00:24:18.481Z,3.40
2022-12-07T00:26:45.825Z,4.00
2022-12-07T00:29:20.732Z,3.80
2022-12-07T00:31:48.621Z,2.80
2022-12-07T00:34:17.770Z,3.72
2022-12-07T00:36:44.345Z,3.83
2022-12-07T00:39:11.065Z,3.90
2022-12-07T00:41:37.413Z,3.92
2022-12-07T00:44:06.743Z,3.80
2022-12-07T00:46:33.341Z,3.85
2022-12-07T00:48:59.808Z,3.28
2022-12-07T00:51:27.187Z,3.42
2022-12-07T00:53:54.014Z,3.30
2022-12-07T00:56:24.827Z,3.38
2022-12-07T00:59:06.812Z,4.22
2022-12-07T01:01:37.563Z,4.35
2022-12-07T01:04:04.535Z,4.20
2022-12-07T01:06:31.513Z,4.05
2022-12-07T01:08:58.564Z,3.67
2022-12-07T01:11:28.983Z,3.53
2022-12-07T01:13:57.184Z,3.17
2022-12-07T01:16:26.483Z,2.83
2022-12-07T01:18:55.168Z,3.17
2022-12-07T01:21:25.083Z,3.15
2022-12-07T01:23:52.477Z,3.90
2022-12-07T01:26:23.619Z,4.15
2022-12-07T01:28:54.775Z,3.65
2022-12-07T01:31:23.253Z,3.47
2022-12-07T01:33:53.601Z,3.63
2022-12-07T01:36:28.529Z,3.60
2022-12-07T01:41:47.023Z,3.45
2022-12-07T01:44:23.888Z,4.55
2022-12-07T01:46:57.397Z,3.65
2022-12-07T01:49:56.132Z,3.30
2022-12-07T01:52:25.495Z,2.50
2022-12-07T01:55:08.640Z,2.60
2022-12-07T01:57:38.018Z,2.15
2022-12-07T02:00:07.589Z,1.83
2022-12-07T02:03:00.861Z,2.42
2022-12-07T02:05:29.078Z,2.17
2022-12-07T02:08:38.041Z,2.13
2022-12-07T02:11:06.752Z,2.47
2022-12-07T02:13:35.999Z,2.13
2022-12-07T02:16:08.137Z,1.95
2022-12-07T02:18:46.752Z,2.60
2022-12-07T02:21:36.183Z,1.60
2022-12-07T02:24:20.740Z,2.30
2022-12-07T02:26:54.304Z,1.98
2022-12-07T02:29:34.257Z,2.00
2022-12-07T02:32:14.363Z,2.03
2022-12-07T02:34:47.350Z,1.90
2022-12-07T02:37:35.510Z,2.70
2022-12-07T02:40:10.735Z,2.28
2022-12-07T02:42:49.733Z,2.30
2022-12-07T02:45:19.744Z,1.90
2022-12-07T02:47:52.105Z,2.25
2022-12-07T02:50:23.177Z,1.40
2022-12-07T02:52:49.730Z,1.80
2022-12-07T02:55:21.303Z,1.70
2022-12-07T02:57:56.209Z,2.03
2022-12-07T03:00:22.894Z,2.38
2022-12-07T03:03:07.859Z,2.13
2022-12-07T03:05:40.279Z,1.77
2022-12-07T03:11:19.046Z,1.90
2022-12-07T03:13:56.622Z,1.50
2022-12-07T03:16:28.149Z,2.28
2022-12-07T03:19:18.469Z,1.80
2022-12-07T03:21:54.337Z,2.05
2022-12-07T03:24:25.448Z,1.60
2022-12-07T03:27:06.276Z,1.38
2022-12-07T03:29:38.833Z,2.15
2022-12-07T03:32:24.146Z,1.88
2022-12-07T03:34:58.503Z,1.50
2022-12-07T03:37:44.879Z,1.67
2022-12-07T03:40:20.775Z,3.00
2022-12-07T03:42:51.018Z,1.67
2022-12-07T03:45:19.229Z,1.80
2022-12-07T03:48:09.322Z,1.98
2022-12-07T03:51:01.860Z,1.83
2022-12-07T03:53:40.624Z,2.13
2022-12-07T03:56:10.470Z,1.60
2022-12-07T03:58:40.302Z,2.38
2022-12-07T04:01:10.426Z,1.55
2022-12-07T04:03:36.819Z,1.73
2022-12-07T04:06:03.402Z,1.63
2022-12-07T04:08:32.813Z,1.67
2022-12-07T04:10:59.186Z,1.83
2022-12-07T04:13:25.568Z,1.50
2022-12-07T04:15:51.924Z,1.65
2022-12-07T04:18:21.564Z,1.40
2022-12-07T04:20:48.065Z,1.80
2022-12-07T04:23:16.599Z,1.90
2022-12-07T04:25:43.031Z,1.42
2022-12-07T04:28:09.491Z,1.77
2022-12-07T04:30:35.840Z,1.13
2022-12-07T04:33:02.238Z,1.55
2022-12-07T04:35:28.659Z,1.13
2022-12-07T04:37:57.387Z,0.90
2022-12-07T04:40:23.744Z,1.27
2022-12-07T04:42:53.066Z,1.75
2022-12-07T04:45:19.592Z,1.15
2022-12-07T04:47:46.240Z,1.05
2022-12-07T04:50:12.925Z,1.63
2022-12-07T04:52:40.061Z,1.13
2022-12-07T04:55:06.759Z,1.80
2022-12-07T04:57:33.126Z,1.55
2022-12-07T04:59:59.646Z,1.15
2022-12-07T05:02:26.506Z,1.63
2022-12-07T05:04:52.947Z,1.02
2022-12-07T05:07:19.558Z,1.05
2022-12-07T05:09:45.895Z,1.33
2022-12-07T05:12:12.288Z,1.10
2022-12-07T05:14:38.797Z,1.65
2022-12-07T05:17:05.327Z,1.33
2022-12-07T05:19:33.393Z,1.38
2022-12-07T05:21:59.762Z,2.70
2022-12-07T05:24:28.948Z,1.73
2022-12-07T05:26:56.817Z,3.70
2022-12-07T05:29:23.286Z,2.17
2022-12-07T05:31:49.978Z,1.73
2022-12-07T05:34:16.627Z,1.75
2022-12-07T05:36:43.463Z,1.08
2022-12-07T05:39:10.790Z,1.80
2022-12-07T05:41:55.598Z,2.47
2022-12-07T05:44:24.637Z,1.80
2022-12-07T05:46:50.993Z,1.27
2022-12-07T05:49:17.614Z,1.73
2022-12-07T05:51:44.176Z,1.75
2022-12-07T05:54:10.568Z,1.40
2022-12-07T05:56:37.007Z,2.03
2022-12-07T05:59:22.040Z,2.42
2022-12-07T06:01:48.447Z,1.80
2022-12-07T06:04:14.828Z,1.60
2022-12-07T06:06:41.230Z,1.77
2022-12-07T06:09:07.717Z,2.03
2022-12-07T06:11:52.782Z,2.10
2022-12-07T06:14:19.167Z,2.05
2022-12-07T06:16:45.797Z,2.10
2022-12-07T06:19:12.376Z,1.67
2022-12-07T06:21:38.883Z,2.08
2022-12-07T06:24:05.812Z,2.03
2022-12-07T06:26:32.232Z,2.35
2022-12-07T06:29:01.840Z,1.67
2022-12-07T06:31:28.353Z,1.90
2022-12-07T06:34:06.194Z,1.70
2022-12-07T06:36:32.837Z,1.90
2022-12-07T06:38:59.464Z,1.65
2022-12-07T06:41:25.981Z,2.22
2022-12-07T06:43:56.013Z,1.40
2022-12-07T06:46:23.291Z,2.95
2022-12-07T06:48:50.021Z,1.70
2022-12-07T06:51:17.047Z,1.90
2022-12-07T06:53:46.253Z,2.45
2022-12-07T06:56:12.640Z,2.42
2022-12-07T06:58:40.998Z,2.45
2022-12-07T07:01:15.526Z,2.05
2022-12-07T07:03:42.217Z,3.72
2022-12-07T07:06:09.137Z,2.28
2022-12-07T07:08:36.949Z,1.50
2022-12-07T07:11:06.075Z,2.33
2022-12-07T07:13:33.092Z,2.50
2022-12-07T07:15:59.675Z,3.08
2022-12-07T07:18:26.755Z,2.83
2022-12-07T07:20:54.232Z,3.08
2022-12-07T07:23:21.228Z,3.58
2022-12-07T07:25:48.423Z,3.33
2022-12-07T07:28:15.426Z,2.67
2022-12-07T07:30:41.944Z,3.10
2022-12-07T07:33:10.408Z,4.00
2022-12-07T07:35:37.419Z,3.22
2022-12-07T07:38:04.313Z,3.30
2022-12-07T07:40:31.432Z,3.60
2022-12-07T07:42:58.770Z,2.85
2022-12-07T07:45:27.174Z,3.00
2022-12-07T07:47:53.964Z,3.50
2022-12-07T07:50:21.189Z,2.63
2022-12-07T07:52:50.679Z,3.17
2022-12-07T07:55:17.229Z,2.60
2022-12-07T07:57:47.156Z,2.22
2022-12-07T08:00:17.281Z,2.53
2022-12-07T08:02:44.474Z,3.58
2022-12-07T08:05:14.583Z,3.85
2022-12-07T08:07:41.297Z,4.82
2022-12-07T08:10:08.794Z,3.60
2022-12-07T08:12:59.834Z,2.50
2022-12-07T08:15:31.286Z,2.10
2022-12-07T08:17:57.992Z,1.83
2022-12-07T08:20:26.360Z,2.00
2022-12-07T08:22:52.940Z,2.83
2022-12-07T08:25:20.878Z,2.85
2022-12-07T08:27:47.612Z,1.70
2022-12-07T08:30:14.242Z,1.83
2022-12-07T08:32:45.752Z,1.90
2022-12-07T08:35:13.866Z,1.75
2022-12-07T08:37:40.481Z,2.88
2022-12-07T08:40:08.381Z,1.70
2022-12-07T08:42:41.528Z,2.42
2022-12-07T08:45:11.526Z,2.08
2022-12-07T08:47:42.852Z,1.80
2022-12-07T08:50:12.307Z,1.97
2022-12-07T08:52:40.626Z,1.48
2022-12-07T08:55:07.676Z,1.63
2022-12-07T08:57:36.926Z,2.05
2022-12-07T09:00:05.558Z,1.92
2022-12-07T09:02:33.182Z,1.20
2022-12-07T09:04:59.937Z,1.95
2022-12-07T09:07:31.704Z,1.45
2022-12-07T09:09:58.139Z,1.30
2022-12-07T09:12:24.731Z,1.30
2022-12-07T09:14:51.133Z,1.58
2022-12-07T09:17:17.546Z,1.42
2022-12-07T09:19:44.412Z,1.50
2022-12-07T09:22:10.995Z,1.65
2022-12-07T09:24:37.741Z,2.20
2022-12-07T09:27:04.661Z,2.17
2022-12-07T09:29:31.302Z,1.85
2022-12-07T09:31:57.909Z,1.80
2022-12-07T09:34:24.784Z,2.30
2022-12-07T09:36:51.268Z,1.70
2022-12-07T09:39:18.384Z,1.75
2022-12-07T09:41:46.410Z,2.00
2022-12-07T09:44:17.210Z,1.48
2022-12-07T09:46:44.533Z,1.90
2022-12-07T09:49:20.335Z,2.10
2022-12-07T09:51:47.927Z,2.20
2022-12-07T09:54:16.221Z,1.50
2022-12-07T09:56:44.277Z,2.38
2022-12-07T09:59:17.706Z,1.45
2022-12-07T10:01:45.377Z,2.47
2022-12-07T10:04:22.313Z,1.88
2022-12-07T10:06:49.286Z,3.13
2022-12-07T10:09:18.021Z,2.22
2022-12-07T10:11:59.860Z,3.35
2022-12-07T10:14:44.205Z,1.73
2022-12-07T10:17:44.499Z,1.77
2022-12-07T10:20:37.190Z,2.60
2022-12-07T10:23:06.635Z,2.72
2022-12-07T10:25:35.858Z,1.65
2022-12-07T10:28:16.576Z,1.27
2022-12-07T10:31:00.116Z,1.40
2022-12-07T10:33:49.197Z,1.70
2022-12-07T10:36:23.601Z,1.60
2022-12-07T10:38:53.911Z,2.30
2022-12-07T10:41:21.303Z,1.33
2022-12-07T10:43:50.317Z,1.83
2022-12-07T10:46:31.068Z,1.75
2022-12-07T10:49:08.556Z,1.65
2022-12-07T10:51:45.139Z,1.60
2022-12-07T10:54:22.904Z,2.00
2022-12-07T10:56:52.917Z,1.77
2022-12-07T10:59:55.177Z,1.88
2022-12-07T11:03:06.622Z,1.73
2022-12-07T11:05:51.335Z,2.15
2022-12-07T11:08:37.419Z,1.95
2022-12-07T11:11:36.284Z,2.30
2022-12-07T11:14:20.924Z,2.38
2022-12-07T11:16:57.837Z,1.60
2022-12-07T11:19:52.088Z,1.77
2022-12-07T11:22:49.597Z,1.70
2022-12-07T11:25:38.967Z,2.63
2022-12-07T11:28:46.277Z,2.50
2022-12-07T11:31:29.411Z,1.13
2022-12-07T11:34:29.043Z,2.35
2022-12-07T11:36:58.091Z,1.42
2022-12-07T11:39:36.599Z,1.58
2022-12-07T11:42:20.270Z,1.48
2022-12-07T11:45:11.593Z,1.73
2022-12-07T11:47:47.249Z,2.20
2022-12-07T11:50:36.772Z,1.73
2022-12-07T11:53:09.336Z,1.65
2022-12-07T11:55:53.919Z,1.77
2022-12-07T11:58:48.676Z,1.42
2022-12-07T12:01:20.277Z,1.63
2022-12-07T12:04:24.722Z,1.50
2022-12-07T12:06:51.250Z,1.45
2022-12-07T12:15:09.350Z,2.13
2022-12-07T12:18:08.850Z,1.60
2022-12-07T12:20:46.784Z,2.10
2022-12-07T12:23:16.221Z,1.80
2022-12-07T12:25:44.770Z,1.63
2022-12-07T12:28:42.979Z,0.90
2022-12-07T12:31:40.804Z,1.33
2022-12-07T12:34:31.186Z,0.65
2022-12-07T12:36:57.724Z,0.60
2022-12-07T12:39:26.680Z,0.80
2022-12-07T12:41:56.079Z,0.60
2022-12-07T12:44:23.230Z,0.75
2022-12-07T12:46:57.940Z,0.68
2022-12-07T12:49:24.315Z,1.00
2022-12-07T12:52:18.189Z,0.70
2022-12-07T12:55:12.567Z,1.05
2022-12-07T12:57:39.092Z,1.02
2022-12-07T13:00:20.567Z,1.52
2022-12-07T13:02:55.401Z,1.08
2022-12-07T13:05:24.802Z,1.15
2022-12-07T13:07:56.624Z,2.13
2022-12-07T13:10:37.630Z,1.40
2022-12-07T13:13:14.760Z,2.22
2022-12-07T13:15:41.058Z,1.85
2022-12-07T13:18:31.698Z,1.67
2022-12-07T13:21:01.485Z,1.50
2022-12-07T13:23:51.302Z,1.60
2022-12-07T13:26:36.289Z,1.50
2022-12-07T13:29:18.082Z,1.40
2022-12-07T13:31:53.321Z,1.35
2022-12-07T13:34:32.207Z,1.35
2022-12-07T13:37:01.311Z,0.90
2022-12-07T13:39:27.798Z,1.55
2022-12-07T13:41:57.685Z,1.88
2022-12-07T13:44:25.870Z,1.20
2022-12-07T13:46:58.312Z,2.03
2022-12-07T13:49:30.616Z,1.83
2022-12-07T13:52:16.696Z,1.48
2022-12-07T13:54:47.350Z,2.08
2022-12-07T13:57:14.001Z,1.67
2022-12-07T13:59:40.522Z,1.23
2022-12-07T14:02:34.080Z,1.60
2022-12-07T14:05:24.534Z,1.27
2022-12-07T14:08:22.236Z,1.15
2022-12-07T14:10:48.816Z,1.10
2022-12-07T14:13:35.793Z,3.28
2022-12-07T14:16:28.960Z,1.83
2022-12-07T14:18:59.024Z,1.83
2022-12-07T14:21:34.941Z,1.38
2022-12-07T14:24:04.326Z,1.23
2022-12-07T14:26:30.783Z,1.42
2022-12-07T14:29:20.922Z,1.50
2022-12-07T14:31:47.484Z,1.10
2022-12-07T14:34:14.240Z,1.30
2022-12-07T14:36:40.779Z,0.93
2022-12-07T14:39:11.715Z,0.60
2022-12-07T14:41:51.711Z,1.00
2022-12-07T14:44:26.799Z,0.82
2022-12-07T14:49:42.506Z,1.50
2022-12-07T14:55:02.900Z,2.50
2022-12-07T14:57:29.595Z,1.42
2022-12-07T14:59:55.984Z,0.75
2022-12-07T15:02:22.575Z,0.77
2022-12-07T15:04:49.265Z,1.30
2022-12-07T15:07:22.132Z,1.23
2022-12-07T15:09:49.544Z,1.25
2022-12-07T15:12:16.263Z,1.67
2022-12-07T15:14:42.772Z,2.17
2022-12-07T15:17:26.008Z,1.85
2022-12-07T15:19:54.462Z,1.30
2022-12-07T15:22:20.909Z,1.90
2022-12-07T15:24:47.356Z,2.22
2022-12-07T15:27:13.771Z,2.50
2022-12-07T15:29:40.223Z,1.65
2022-12-07T15:32:06.840Z,2.63
2022-12-07T15:34:40.005Z,2.58
2022-12-07T15:37:08.033Z,2.65
2022-12-07T15:39:35.561Z,3.35
2022-12-07T15:42:02.073Z,2.42
2022-12-07T15:44:46.917Z,3.35
2022-12-07T15:47:16.028Z,2.58
2022-12-07T15:49:42.522Z,1.42
2022-12-07T15:52:12.123Z,2.25
2022-12-07T15:54:38.813Z,1.70
2022-12-07T15:57:05.603Z,2.67
2022-12-07T15:59:32.028Z,1.90
2022-12-07T16:01:58.876Z,2.55
2022-12-07T16:04:27.483Z,2.03
2022-12-07T16:06:54.044Z,1.92
2022-12-07T16:09:20.612Z,2.00
2022-12-07T16:11:46.983Z,2.20
2022-12-07T16:14:13.581Z,1.92
2022-12-07T16:16:41.180Z,2.90
2022-12-07T16:19:08.920Z,2.78
2022-12-07T16:21:36.660Z,2.80
2022-12-07T16:24:04.827Z,2.45
2022-12-07T16:26:31.957Z,3.10
2022-12-07T16:28:58.944Z,4.05
2022-12-07T16:31:27.892Z,4.53
2022-12-07T16:33:56.414Z,3.17
2022-12-07T16:36:55.046Z,4.47
2022-12-07T16:39:11.813Z,2.90
2022-12-07T16:41:38.205Z,3.95
2022-12-07T16:44:07.130Z,3.67
2022-12-07T16:46:35.020Z,4.78
2022-12-07T16:49:01.688Z,4.78
2022-12-07T16:51:28.527Z,4.72
2022-12-07T16:53:55.175Z,4.28
2022-12-07T16:56:22.226Z,4.47
2022-12-07T16:58:50.156Z,4.35
2022-12-07T17:01:17.935Z,4.32
2022-12-07T17:03:45.250Z,7.05
2022-12-07T17:06:19.316Z,10.15
2022-12-07T17:08:45.801Z,7.47
2022-12-07T17:11:16.047Z,6.63
2022-12-07T17:14:03.984Z,5.20
2022-12-07T17:16:31.605Z,4.15
2022-12-07T17:18:58.554Z,3.03
2022-12-07T17:21:27.357Z,2.92
2022-12-07T17:23:53.821Z,3.20
2022-12-07T17:26:24.138Z,4.60
2022-12-07T17:28:53.617Z,7.47
2022-12-07T17:31:22.007Z,3.30
2022-12-07T17:33:48.414Z,1.77
2022-12-07T17:36:17.951Z,1.63
2022-12-07T17:38:44.808Z,3.08
2022-12-07T17:41:47.153Z,1.80
2022-12-07T17:44:21.085Z,1.60
2022-12-07T17:46:50.284Z,2.15
2022-12-07T17:49:16.890Z,2.28
2022-12-07T17:52:01.980Z,2.10
2022-12-07T17:54:29.199Z,1.83
2022-12-07T17:56:56.656Z,2.72
2022-12-07T17:59:23.278Z,2.65
2022-12-07T18:01:49.977Z,2.58
2022-12-07T18:04:20.016Z,3.60
2022-12-07T18:06:51.700Z,5.20
2022-12-07T18:09:18.979Z,4.13
2022-12-07T18:11:45.493Z,3.95
2022-12-07T18:14:12.264Z,5.00
2022-12-07T18:16:40.622Z,5.32
2022-12-07T18:19:08.967Z,5.03
2022-12-07T18:21:35.890Z,6.05
2022-12-07T18:24:07.400Z,5.07
2022-12-07T18:26:37.417Z,6.22
2022-12-07T18:29:05.982Z,4.75
2022-12-07T18:31:32.797Z,5.85
2022-12-07T18:34:08.858Z,4.15
2022-12-07T18:36:37.795Z,4.75
2022-12-07T18:39:08.089Z,4.93
2022-12-07T18:41:35.372Z,4.45
2022-12-07T18:44:04.716Z,3.80
2022-12-07T18:46:31.873Z,5.38
2022-12-07T18:48:58.423Z,5.82
2022-12-07T18:51:30.392Z,4.80
2022-12-07T18:54:02.455Z,4.35
2022-12-07T18:56:29.348Z,6.30
2022-12-07T18:59:17.228Z,5.57
2022-12-07T19:01:46.612Z,5.88
2022-12-07T19:04:19.658Z,6.93
2022-12-07T19:06:48.666Z,7.88
2022-12-07T19:09:16.302Z,8.63
2022-12-07T19:11:52.605Z,7.25
2022-12-07T19:14:27.407Z,6.05
2022-12-07T19:17:03.403Z,6.07
2022-12-07T19:19:36.398Z,5.35
2022-12-07T19:22:04.203Z,5.60
2022-12-07T19:24:31.121Z,5.45
2022-12-07T19:26:58.411Z,5.57
2022-12-07T19:29:25.165Z,5.22
2022-12-07T19:31:51.901Z,5.60
2022-12-07T19:34:18.679Z,6.13
2022-12-07T19:36:46.825Z,5.50
2022-12-07T19:39:15.413Z,5.53
2022-12-07T19:41:44.320Z,7.13
2022-12-07T19:44:19.818Z,7.65
2022-12-07T19:46:50.918Z,6.40
2022-12-07T19:49:18.787Z,5.63
2022-12-07T19:51:47.841Z,5.38
2022-12-07T19:54:16.642Z,7.28
2022-12-07T19:56:45.436Z,10.07
2022-12-07T19:59:13.653Z,6.05
2022-12-07T20:01:41.187Z,4.78
2022-12-07T20:04:11.300Z,4.72
2022-12-07T20:06:38.233Z,3.40
2022-12-07T20:09:05.230Z,5.10
2022-12-07T20:11:50.886Z,9.35
2022-12-07T20:14:17.378Z,15.48
2022-12-07T20:16:46.431Z,9.20
2022-12-07T20:19:15.277Z,4.68
2022-12-07T20:21:43.643Z,6.05
2022-12-07T20:24:13.537Z,6.40
2022-12-07T20:26:46.499Z,6.25
2022-12-07T20:29:18.327Z,5.25
2022-12-07T20:31:49.307Z,7.22
2022-12-07T20:34:16.239Z,5.68
2022-12-07T20:36:46.141Z,5.93
2022-12-07T20:39:12.757Z,5.72
2022-12-07T20:41:58.489Z,5.90
2022-12-07T20:44:25.303Z,6.57
2022-12-07T20:46:51.763Z,5.38
2022-12-07T20:49:18.477Z,6.03
2022-12-07T20:51:48.313Z,6.15
2022-12-07T20:54:15.463Z,6.50
2022-12-07T20:56:42.163Z,7.07
2022-12-07T20:59:12.875Z,6.22
2022-12-07T21:01:40.138Z,6.32
2022-12-07T21:04:06.839Z,6.05
2022-12-07T21:06:33.484Z,5.63
2022-12-07T21:09:00.823Z,4.15
2022-12-07T21:11:29.276Z,6.00
2022-12-07T21:13:55.903Z,4.88
2022-12-07T21:16:24.912Z,4.53
2022-12-07T21:18:51.827Z,5.32
2022-12-07T21:21:19.596Z,4.38
2022-12-07T21:23:51.149Z,4.72
2022-12-07T21:26:23.774Z,5.20
2022-12-07T21:28:52.068Z,4.32
2022-12-07T21:31:19.584Z,4.70
2022-12-07T21:33:47.047Z,4.15
2022-12-07T21:36:16.631Z,3.60
2022-12-07T21:38:43.352Z,3.22
2022-12-07T21:41:14.716Z,3.72
2022-12-07T21:43:41.915Z,3.30
2022-12-07T21:46:11.628Z,10.07
2022-12-07T21:48:38.244Z,4.70
2022-12-07T21:51:07.245Z,3.28
2022-12-07T21:53:34.790Z,7.03
2022-12-07T21:56:03.013Z,4.43
2022-12-07T21:58:30.839Z,3.15
2022-12-07T22:00:59.175Z,3.63
2022-12-07T22:03:25.641Z,2.95
2022-12-07T22:05:52.842Z,2.80
2022-12-07T22:08:32.385Z,2.70
2022-12-07T22:11:03.643Z,3.40
2022-12-07T22:13:50.074Z,3.93
2022-12-07T22:16:16.831Z,3.30
2022-12-07T22:18:43.493Z,2.92
2022-12-07T22:21:09.860Z,3.47
2022-12-07T22:23:36.619Z,3.17
2022-12-07T22:26:10.973Z,3.35
2022-12-07T22:28:39.026Z,2.85
2022-12-07T22:31:08.395Z,3.63
2022-12-07T22:33:36.346Z,1.90
2022-12-07T22:36:05.044Z,2.63
2022-12-07T22:38:31.673Z,3.45
2022-12-07T22:40:58.892Z,2.70
2022-12-07T22:43:28.457Z,2.72
2022-12-07T22:45:56.765Z,2.03
2022-12-07T22:48:23.949Z,3.33
2022-12-07T22:50:52.609Z,2.40
2022-12-07T22:53:20.596Z,2.30
2022-12-07T22:55:47.063Z,2.22
2022-12-07T22:58:13.743Z,1.80
2022-12-07T23:00:43.120Z,2.47
2022-12-07T23:03:09.836Z,1.83
2022-12-07T23:05:44.130Z,1.58
2022-12-07T23:08:12.256Z,1.40
2022-12-07T23:10:47.202Z,1.48
2022-12-07T23:13:32.180Z,1.65
2022-12-07T23:16:13.076Z,1.63
2022-12-07T23:18:41.236Z,1.75
2022-12-07T23:21:08.550Z,1.90
2022-12-07T23:23:35.439Z,1.55
2022-12-07T23:26:07.043Z,1.55
2022-12-07T23:28:35.067Z,1.30
2022-12-07T23:31:05.337Z,1.08
2022-12-07T23:33:32.261Z,1.45
2022-12-07T23:36:28.863Z,2.00
2022-12-07T23:38:57.897Z,1.85
2022-12-07T23:41:29.497Z,1.30
2022-12-07T23:43:58.198Z,1.42
2022-12-07T23:46:30.488Z,1.52
2022-12-07T23:48:58.429Z,1.63
2022-12-07T23:51:25.721Z,1.75
2022-12-07T23:53:53.411Z,1.50
2022-12-07T23:56:25.995Z,1.67
2022-12-07T23:58:53.746Z,1.52
